Time;durP1;ratioP1;P1;durP2;ratioP2;P2;SDS_P1;SDS_P2;PMS_P1;PMS_P2;Temp;Humidity;BMP_temperature;BMP_pressure;BME280_temperature;BME280_humidity;BME280_pressure;Samples;Min_cycle;Max_cycle;Signal;HPM_P1;HPM_P2
2022/05/04 00:01:08;;;;;;;7.47;1.67;;;9.20;99.90;;;;;;5047590;28;20719;-79
2022/05/04 00:03:40;;;;;;;9.98;2.25;;;9.20;99.90;;;;;;5018231;28;20477;-79
2022/05/04 00:06:07;;;;;;;11.90;1.83;;;9.30;99.90;;;;;;5052553;28;20032;-80
2022/05/04 00:08:32;;;;;;;8.60;1.55;;;9.30;99.90;;;;;;5053028;28;20037;-79
2022/05/04 00:10:59;;;;;;;8.00;1.65;;;9.30;99.90;;;;;;5053026;28;20094;-80
2022/05/04 00:13:24;;;;;;;4.85;1.80;;;9.30;99.90;;;;;;5052868;28;20112;-79
2022/05/04 00:15:50;;;;;;;8.82;2.15;;;9.40;99.90;;;;;;5051543;28;20079;-80
2022/05/04 00:18:16;;;;;;;8.80;1.93;;;9.30;99.90;;;;;;5049495;28;20044;-79
2022/05/04 00:20:41;;;;;;;9.55;2.10;;;9.30;99.90;;;;;;5036111;28;20496;-79
2022/05/04 00:23:07;;;;;;;10.60;2.00;;;9.30;99.90;;;;;;5045179;28;20051;-80
2022/05/04 00:25:33;;;;;;;8.40;1.87;;;9.30;99.90;;;;;;5045323;28;20068;-79
2022/05/04 00:28:02;;;;;;;6.47;2.00;;;9.30;99.90;;;;;;5034307;28;20047;-79
2022/05/04 00:30:29;;;;;;;4.97;1.52;;;9.30;99.90;;;;;;5050128;28;20337;-80
2022/05/04 00:32:55;;;;;;;9.25;2.00;;;9.30;99.90;;;;;;5041328;28;20111;-81
2022/05/04 00:35:20;;;;;;;9.95;2.15;;;9.30;99.90;;;;;;5043596;28;20067;-79
2022/05/04 00:37:46;;;;;;;7.78;2.00;;;9.30;99.90;;;;;;5042425;28;20052;-80
2022/05/04 00:40:12;;;;;;;7.43;2.70;;;9.30;99.90;;;;;;5045421;28;20082;-79
2022/05/04 00:42:38;;;;;;;10.55;2.65;;;9.30;99.90;;;;;;5043185;28;20036;-80
2022/05/04 00:45:04;;;;;;;8.23;2.20;;;9.30;99.90;;;;;;5045069;28;20044;-79
2022/05/04 00:47:31;;;;;;;7.95;2.25;;;9.30;99.90;;;;;;5025413;28;20045;-79
2022/05/04 00:50:04;;;;;;;9.45;2.10;;;9.10;99.90;;;;;;5049169;28;20540;-79
2022/05/04 00:52:31;;;;;;;8.15;2.17;;;9.20;99.90;;;;;;5056824;28;20040;-79
2022/05/04 00:54:57;;;;;;;6.40;1.90;;;9.20;99.90;;;;;;5055512;28;20074;-80
2022/05/04 01:00:09;;;;;;;9.80;2.40;;;9.10;99.90;;;;;;5041041;28;20366;-79
2022/05/04 01:02:38;;;;;;;5.40;2.20;;;9.10;99.90;;;;;;5053073;28;20044;-80
2022/05/04 01:05:04;;;;;;;9.40;2.22;;;9.10;99.90;;;;;;5056319;28;20047;-80
2022/05/04 01:07:30;;;;;;;8.00;2.60;;;9.10;99.90;;;;;;5053028;28;20124;-78
2022/05/04 01:09:55;;;;;;;7.65;2.42;;;9.00;99.90;;;;;;5038226;28;20124;-79
2022/05/04 01:12:24;;;;;;;10.87;2.80;;;9.00;99.90;;;;;;5042066;28;20043;-80
2022/05/04 01:14:49;;;;;;;8.05;2.20;;;9.00;99.90;;;;;;5049037;28;20379;-79
2022/05/04 01:17:15;;;;;;;7.10;2.50;;;9.00;99.90;;;;;;5044029;28;20481;-80
2022/05/04 01:19:41;;;;;;;8.10;2.30;;;9.10;99.90;;;;;;5053879;28;20511;-79
2022/05/04 01:22:08;;;;;;;6.07;2.00;;;9.00;99.90;;;;;;5046238;28;20667;-80
2022/05/04 01:24:33;;;;;;;11.63;2.22;;;9.00;99.90;;;;;;5023425;28;20063;-80
2022/05/04 01:26:59;;;;;;;6.27;2.30;;;9.00;99.90;;;;;;5039670;28;20123;-79
2022/05/04 01:29:25;;;;;;;6.43;2.10;;;9.00;99.90;;;;;;5055800;28;20094;-80
2022/05/04 01:31:50;;;;;;;11.77;2.23;;;9.00;99.90;;;;;;5037519;28;20287;-80
2022/05/04 01:34:17;;;;;;;7.77;2.30;;;8.90;99.90;;;;;;5053733;28;20037;-78
2022/05/04 01:36:43;;;;;;;11.98;2.50;;;8.90;99.90;;;;;;5038973;28;20032;-79
2022/05/04 01:39:08;;;;;;;7.40;2.00;;;9.00;99.90;;;;;;5052788;28;20067;-78
2022/05/04 01:44:18;;;;;;;11.45;2.55;;;9.00;99.90;;;;;;5070745;28;20084;-79
2022/05/04 01:46:44;;;;;;;11.00;2.37;;;8.90;99.90;;;;;;5055901;28;20037;-79
2022/05/04 01:49:09;;;;;;;7.60;2.40;;;9.00;99.90;;;;;;5052761;28;20113;-79
2022/05/04 01:51:35;;;;;;;6.53;1.90;;;8.90;99.90;;;;;;5053227;28;20558;-79
2022/05/04 01:54:00;;;;;;;8.97;2.57;;;8.80;99.90;;;;;;5039299;28;20549;-80
2022/05/04 01:56:26;;;;;;;12.87;2.70;;;9.00;99.90;;;;;;5052485;28;20318;-80
2022/05/04 01:58:52;;;;;;;7.85;2.17;;;8.90;99.90;;;;;;5037671;28;20049;-80
2022/05/04 02:01:18;;;;;;;9.20;2.90;;;8.80;99.90;;;;;;5038167;28;20055;-80
2022/05/04 02:03:43;;;;;;;8.52;2.58;;;8.90;99.90;;;;;;5052068;28;20057;-79
2022/05/04 02:06:09;;;;;;;7.68;2.17;;;8.90;99.90;;;;;;5035025;28;20055;-80
2022/05/04 02:08:35;;;;;;;9.45;2.08;;;8.90;99.90;;;;;;5052642;28;20051;-79
2022/05/04 02:11:01;;;;;;;9.00;2.33;;;8.90;99.90;;;;;;5055495;28;20119;-80
2022/05/04 02:13:27;;;;;;;13.50;2.42;;;8.90;99.90;;;;;;5053915;28;20029;-80
2022/05/04 02:15:53;;;;;;;6.03;2.17;;;8.80;99.90;;;;;;5053338;28;20033;-80
2022/05/04 02:18:18;;;;;;;10.20;2.10;;;8.80;99.90;;;;;;5053110;28;20295;-79
2022/05/04 02:20:44;;;;;;;12.43;2.27;;;8.80;99.90;;;;;;5054889;28;20772;-80
2022/05/04 02:23:09;;;;;;;8.43;2.40;;;8.80;99.90;;;;;;5051399;28;20040;-80
2022/05/04 02:25:35;;;;;;;8.77;2.33;;;8.80;99.90;;;;;;5055380;28;20064;-78
2022/05/04 02:28:01;;;;;;;8.93;2.40;;;8.80;99.90;;;;;;5055129;28;20040;-81
2022/05/04 02:30:27;;;;;;;12.82;2.72;;;8.80;99.90;;;;;;5052820;28;20284;-80
2022/05/04 02:32:52;;;;;;;5.75;2.63;;;8.80;99.90;;;;;;5035025;28;20037;-80
2022/05/04 02:38:02;;;;;;;12.43;2.38;;;8.80;99.90;;;;;;5051952;28;20110;-79
2022/05/04 02:40:28;;;;;;;8.93;2.75;;;8.80;99.90;;;;;;5052217;28;20028;-80
2022/05/04 02:42:54;;;;;;;9.88;2.20;;;9.00;99.90;;;;;;5034618;28;20043;-80
2022/05/04 02:45:20;;;;;;;;;;;8.80;99.90;;;;;;5052353;28;20119;-80
2022/05/04 02:47:46;;;;;;;8.85;2.60;;;8.80;99.90;;;;;;5037495;28;20000;-80
2022/05/04 02:50:11;;;;;;;5.37;2.20;;;8.70;99.90;;;;;;5043606;28;20463;-80
2022/05/04 02:52:37;;;;;;;9.43;2.40;;;8.70;99.90;;;;;;5049322;28;20040;-80
2022/05/04 02:55:04;;;;;;;9.27;1.90;;;8.70;99.90;;;;;;5051722;28;20279;-79
2022/05/04 02:57:30;;;;;;;7.13;2.13;;;8.70;99.90;;;;;;5046285;28;20087;-80
2022/05/04 02:59:55;;;;;;;10.07;2.22;;;8.70;99.90;;;;;;5042647;28;20045;-79
2022/05/04 03:02:27;;;;;;;5.53;2.03;;;8.70;99.90;;;;;;5037378;28;20036;-79
2022/05/04 03:04:57;;;;;;;9.50;2.30;;;8.70;99.90;;;;;;5050801;28;20045;-80
2022/05/04 03:07:22;;;;;;;8.93;2.28;;;8.70;99.90;;;;;;5052713;28;20050;-80
2022/05/04 03:09:48;;;;;;;6.15;1.85;;;8.70;99.90;;;;;;5052767;28;20416;-80
2022/05/04 03:12:14;;;;;;;8.15;1.80;;;8.70;99.90;;;;;;5037262;28;20040;-80
2022/05/04 03:14:39;;;;;;;10.13;2.40;;;8.80;99.90;;;;;;5054156;28;20037;-79
2022/05/04 03:17:05;;;;;;;10.27;2.10;;;8.70;99.90;;;;;;5054174;28;20036;-79
2022/05/04 03:19:31;;;;;;;6.67;2.13;;;8.70;99.90;;;;;;5045824;28;20286;-80
2022/05/04 03:21:56;;;;;;;6.87;2.50;;;8.80;99.90;;;;;;5046002;28;20546;-80
2022/05/04 03:24:22;;;;;;;9.05;2.40;;;8.80;99.90;;;;;;5035808;28;20040;-80
2022/05/04 03:26:48;;;;;;;7.17;2.13;;;8.80;99.90;;;;;;5052623;28;20384;-80
2022/05/04 03:29:14;;;;;;;8.10;2.03;;;8.80;99.90;;;;;;5037163;28;20299;-79
2022/05/04 03:31:40;;;;;;;6.30;2.25;;;8.80;99.90;;;;;;5050198;28;20155;-80
2022/05/04 03:34:06;;;;;;;10.77;3.35;;;8.80;99.90;;;;;;5047370;28;20116;-79
2022/05/04 03:36:32;;;;;;;9.80;2.58;;;8.80;99.90;;;;;;5046120;28;20033;-79
2022/05/04 03:38:59;;;;;;;6.93;2.63;;;8.80;99.90;;;;;;5041689;28;20739;-80
2022/05/04 03:41:25;;;;;;;8.90;2.53;;;8.80;99.90;;;;;;5042713;28;20040;-80
2022/05/04 03:43:51;;;;;;;8.43;2.58;;;8.70;99.90;;;;;;5035740;28;20075;-79
2022/05/04 03:46:17;;;;;;;4.85;2.25;;;8.70;99.90;;;;;;5018427;28;20064;-80
2022/05/04 03:48:44;;;;;;;;;;;8.70;99.90;;;;;;5038960;28;20041;-80
2022/05/04 03:51:10;;;;;;;7.60;2.38;;;8.70;99.90;;;;;;5063474;28;19924;-79
2022/05/04 03:53:37;;;;;;;12.02;2.78;;;8.70;99.90;;;;;;5053256;28;20032;-80
2022/05/04 03:56:03;;;;;;;;;;;8.70;99.90;;;;;;5045923;28;20120;-79
2022/05/04 03:58:28;;;;;;;10.38;2.50;;;8.70;99.90;;;;;;5067576;28;19978;-79
2022/05/04 04:00:54;;;;;;;6.47;2.43;;;8.70;99.90;;;;;;5045813;28;20146;-79
2022/05/04 04:03:20;;;;;;;5.97;2.50;;;9.00;99.90;;;;;;5046190;28;20390;-78
2022/05/04 04:05:46;;;;;;;6.78;2.20;;;8.70;99.90;;;;;;5043675;28;20397;-80
2022/05/04 04:08:12;;;;;;;9.10;2.50;;;8.60;99.90;;;;;;5027536;28;20048;-79
2022/05/04 04:10:38;;;;;;;9.77;2.55;;;8.60;99.90;;;;;;5035697;28;20045;-79
2022/05/04 04:13:06;;;;;;;7.28;2.53;;;8.60;99.90;;;;;;5045489;28;20044;-80
2022/05/04 04:15:32;;;;;;;9.07;2.40;;;8.60;99.90;;;;;;5033860;28;20040;-79
2022/05/04 04:17:58;;;;;;;11.13;2.70;;;8.50;99.90;;;;;;5053283;28;20054;-79
2022/05/04 04:23:08;;;;;;;5.85;2.38;;;8.60;99.90;;;;;;5045445;28;20048;-80
2022/05/04 04:25:34;;;;;;;6.37;2.40;;;8.50;99.90;;;;;;5034434;28;20115;-79
2022/05/04 04:28:00;;;;;;;6.13;2.22;;;8.50;99.90;;;;;;5052658;28;20105;-82
2022/05/04 04:30:26;;;;;;;6.88;2.10;;;8.60;99.90;;;;;;5033055;28;20045;-80
2022/05/04 04:32:52;;;;;;;5.60;2.08;;;8.60;99.90;;;;;;5033628;28;20036;-82
2022/05/04 04:35:17;;;;;;;6.33;1.90;;;8.50;99.90;;;;;;5033422;28;20385;-81
2022/05/04 04:37:43;;;;;;;8.20;2.23;;;8.50;99.90;;;;;;5033267;28;20287;-82
2022/05/04 04:40:09;;;;;;;7.00;1.97;;;8.50;99.90;;;;;;5052118;28;20382;-80
2022/05/04 04:42:35;;;;;;;9.25;2.53;;;8.60;99.90;;;;;;5051450;28;20052;-81
2022/05/04 04:45:00;;;;;;;6.73;2.33;;;9.30;99.90;;;;;;5067961;28;20043;-80
2022/05/04 04:47:26;;;;;;;7.77;2.53;;;8.50;99.90;;;;;;5051344;28;20352;-80
2022/05/04 04:49:55;;;;;;;9.47;2.03;;;8.60;99.90;;;;;;5051902;28;20484;-79
2022/05/04 04:52:22;;;;;;;8.32;2.20;;;8.60;99.90;;;;;;5052758;28;20311;-79
2022/05/04 04:54:47;;;;;;;9.68;2.47;;;8.60;99.90;;;;;;5051574;28;20058;-80
2022/05/04 04:57:13;;;;;;;3.80;1.77;;;8.70;99.90;;;;;;5047541;28;20040;-80
2022/05/04 04:59:38;;;;;;;10.77;2.77;;;8.60;99.90;;;;;;5032976;28;20049;-80
2022/05/04 05:02:04;;;;;;;5.03;1.97;;;8.60;99.90;;;;;;5018394;28;20099;-80
2022/05/04 05:04:30;;;;;;;8.50;2.25;;;8.60;99.90;;;;;;5050095;28;20048;-80
2022/05/04 05:06:56;;;;;;;6.35;1.83;;;8.70;99.90;;;;;;5017450;28;20036;-80
2022/05/04 05:09:21;;;;;;;5.83;2.07;;;8.70;99.90;;;;;;5034188;28;20084;-80
2022/05/04 05:11:47;;;;;;;7.63;1.93;;;8.80;99.90;;;;;;5034840;28;20079;-79
2022/05/04 05:16:57;;;;;;;7.90;1.80;;;8.80;99.90;;;;;;5065913;28;20163;-80
2022/05/04 05:19:22;;;;;;;8.73;2.27;;;8.80;99.90;;;;;;5050215;28;20119;-81
2022/05/04 05:21:48;;;;;;;8.85;2.00;;;8.90;99.90;;;;;;5049664;28;20040;-80
2022/05/04 05:24:14;;;;;;;4.83;1.80;;;8.90;99.90;;;;;;5035445;28;20048;-82
2022/05/04 05:26:40;;;;;;;5.47;1.73;;;8.90;99.90;;;;;;5049488;28;20098;-81
2022/05/04 05:29:06;;;;;;;11.43;2.00;;;8.90;99.90;;;;;;5043791;28;20045;-82
2022/05/04 05:31:31;;;;;;;6.45;2.10;;;8.90;99.90;;;;;;5043653;28;20326;-81
2022/05/04 05:33:57;;;;;;;9.30;1.87;;;8.90;99.90;;;;;;5036534;28;20076;-81
2022/05/04 05:36:23;;;;;;;6.77;2.00;;;8.90;99.90;;;;;;5048228;28;20044;-81
2022/05/04 05:38:48;;;;;;;7.33;2.17;;;9.00;99.90;;;;;;5045534;28;20539;-81
2022/05/04 05:41:14;;;;;;;7.43;2.00;;;9.00;99.90;;;;;;5048241;28;20337;-81
2022/05/04 05:43:39;;;;;;;8.33;2.10;;;9.00;99.90;;;;;;5052623;28;20036;-80
2022/05/04 05:46:05;;;;;;;9.77;2.37;;;9.00;99.90;;;;;;5020150;28;20040;-83
2022/05/04 05:48:31;;;;;;;8.90;1.90;;;9.10;99.90;;;;;;5054158;28;20045;-83
2022/05/04 05:50:57;;;;;;;6.90;2.03;;;9.10;99.90;;;;;;5036578;28;20639;-83
2022/05/04 05:53:22;;;;;;;7.97;2.27;;;9.20;99.90;;;;;;5053292;28;20359;-83
2022/05/04 05:55:49;;;;;;;6.25;1.88;;;9.10;99.90;;;;;;5052439;28;20067;-83
2022/05/04 05:58:15;;;;;;;5.72;1.88;;;9.20;99.90;;;;;;5053229;28;20492;-82
2022/05/04 06:00:41;;;;;;;7.00;1.88;;;9.20;99.90;;;;;;5036275;28;20043;-83
2022/05/04 06:03:07;;;;;;;8.25;2.05;;;10.10;99.90;;;;;;5045973;28;20094;-83
2022/05/04 06:05:32;;;;;;;8.77;2.00;;;9.20;99.90;;;;;;5053692;28;20029;-83
2022/05/04 06:07:58;;;;;;;4.83;1.40;;;9.10;99.90;;;;;;5052460;28;20043;-82
2022/05/04 06:10:24;;;;;;;4.97;1.83;;;9.20;99.90;;;;;;5021269;28;20329;-83
2022/05/04 06:12:50;;;;;;;7.50;1.77;;;9.20;99.90;;;;;;5034192;28;20039;-83
2022/05/04 06:15:16;;;;;;;9.30;2.25;;;9.20;99.90;;;;;;5037504;28;20064;-84
2022/05/04 06:17:42;;;;;;;6.47;1.80;;;9.20;99.90;;;;;;5019546;28;20568;-83
2022/05/04 06:20:08;;;;;;;6.40;2.03;;;9.30;99.90;;;;;;5036604;28;20105;-85
2022/05/04 06:22:34;;;;;;;6.47;1.83;;;9.20;99.90;;;;;;5071752;28;20040;-85
2022/05/04 06:25:00;;;;;;;6.50;1.90;;;9.30;99.90;;;;;;5034868;28;20046;-84
2022/05/04 06:27:28;;;;;;;7.50;2.00;;;9.30;99.90;;;;;;5044038;28;20040;-84
2022/05/04 06:35:23;;;;;;;11.63;2.00;;;9.40;99.90;;;;;;5069259;28;20111;-84
2022/05/04 06:37:49;;;;;;;7.63;1.92;;;9.40;99.90;;;;;;5051977;28;20125;-85
2022/05/04 06:40:14;;;;;;;8.03;1.73;;;9.50;99.90;;;;;;5019053;28;20503;-83
2022/05/04 06:42:40;;;;;;;6.23;1.90;;;9.50;99.90;;;;;;5053096;28;20684;-85
2022/05/04 06:45:06;;;;;;;5.53;2.23;;;9.50;99.90;;;;;;5040250;28;20320;-83
2022/05/04 06:47:33;;;;;;;10.35;1.92;;;9.50;99.90;;;;;;5041429;28;20392;-83
2022/05/04 06:49:59;;;;;;;;;;;9.60;99.90;;;;;;5048822;28;20046;-82
2022/05/04 06:52:25;;;;;;;8.18;2.03;;;9.60;99.90;;;;;;5062270;28;19966;-83
2022/05/04 06:54:52;;;;;;;5.95;1.90;;;9.70;99.90;;;;;;5048651;28;20067;-81
2022/05/04 06:57:17;;;;;;;6.43;1.80;;;9.70;99.90;;;;;;5044756;28;20029;-82
2022/05/04 06:59:43;;;;;;;9.00;2.50;;;9.70;99.90;;;;;;5044612;28;20040;-82
2022/05/04 07:02:09;;;;;;;6.72;2.05;;;9.70;99.90;;;;;;5039643;28;20291;-83
2022/05/04 07:04:35;;;;;;;9.23;2.30;;;9.70;99.90;;;;;;5049883;28;20037;-81
2022/05/04 07:07:00;;;;;;;7.20;1.73;;;9.80;99.90;;;;;;5018513;28;20337;-82
2022/05/04 07:09:26;;;;;;;6.47;1.77;;;9.80;99.90;;;;;;5054829;28;20056;-82
2022/05/04 07:11:52;;;;;;;8.20;1.90;;;9.80;99.90;;;;;;5050410;28;20082;-83
2022/05/04 07:14:18;;;;;;;7.47;1.90;;;9.90;99.90;;;;;;5054734;28;20025;-81
2022/05/04 07:16:45;;;;;;;7.38;1.70;;;9.90;99.90;;;;;;5053730;28;20040;-83
2022/05/04 07:19:11;;;;;;;5.72;2.00;;;9.80;99.90;;;;;;5034854;28;20044;-83
2022/05/04 07:21:36;;;;;;;5.95;1.73;;;9.80;99.90;;;;;;5069720;28;20032;-83
2022/05/04 07:24:02;;;;;;;12.43;1.97;;;9.90;99.90;;;;;;5056735;28;20401;-83
2022/05/04 07:26:28;;;;;;;5.65;1.55;;;10.00;99.90;;;;;;5046363;28;21128;-83
2022/05/04 07:28:54;;;;;;;8.50;2.63;;;10.10;99.90;;;;;;5066044;28;20724;-82
2022/05/04 07:31:20;;;;;;;7.90;2.00;;;10.30;99.90;;;;;;5041842;28;20052;-82
2022/05/04 07:33:45;;;;;;;7.93;1.90;;;10.40;99.90;;;;;;5035789;28;20043;-85
2022/05/04 07:36:11;;;;;;;5.07;1.70;;;10.60;99.90;;;;;;5034501;28;20111;-80
2022/05/04 07:38:37;;;;;;;7.55;1.75;;;10.60;99.90;;;;;;5047799;28;20120;-84
2022/05/04 07:43:46;;;;;;;6.53;1.90;;;10.80;99.90;;;;;;5065121;28;20079;-82
2022/05/04 07:46:12;;;;;;;9.63;1.80;;;10.90;99.90;;;;;;5036472;28;20036;-83
2022/05/04 07:48:38;;;;;;;5.07;1.50;;;11.10;99.90;;;;;;5033798;28;20302;-84
2022/05/04 07:51:03;;;;;;;9.75;1.70;;;11.20;99.90;;;;;;5017596;28;20381;-83
2022/05/04 07:53:29;;;;;;;8.03;1.60;;;11.50;99.90;;;;;;5052735;28;20049;-84
2022/05/04 07:55:55;;;;;;;8.32;1.80;;;11.70;99.90;;;;;;5033438;28;20090;-83
2022/05/04 07:58:20;;;;;;;5.10;1.50;;;11.60;99.90;;;;;;5052905;28;20052;-84
2022/05/04 08:06:14;;;;;;;5.80;1.63;;;11.70;99.90;;;;;;5053187;28;20115;-83
2022/05/04 08:08:40;;;;;;;5.45;1.52;;;11.60;99.90;;;;;;5033731;28;20121;-84
2022/05/04 08:11:05;;;;;;;5.57;1.83;;;11.50;99.90;;;;;;5052907;28;20484;-84
2022/05/04 08:13:32;;;;;;;4.80;1.75;;;11.50;99.90;;;;;;5051654;28;20279;-83
2022/05/04 08:15:58;;;;;;;;;;;11.60;99.90;;;;;;5050270;28;20492;-83
2022/05/04 08:18:25;;;;;;;5.85;1.83;;;11.60;99.90;;;;;;5048292;28;19943;-83
2022/05/04 08:20:51;;;;;;;7.13;1.63;;;11.60;99.90;;;;;;5041764;28;20044;-83
2022/05/04 08:23:17;;;;;;;5.30;1.52;;;11.70;99.90;;;;;;5034201;28;20037;-84
2022/05/04 08:25:45;;;;;;;11.98;2.67;;;11.80;99.90;;;;;;5034940;28;20029;-82
2022/05/04 08:28:13;;;;;;;6.53;2.10;;;11.90;99.90;;;;;;5047447;28;20082;-83
2022/05/04 08:30:40;;;;;;;6.22;1.88;;;12.00;99.90;;;;;;5051273;28;20060;-83
2022/05/04 08:33:06;;;;;;;5.53;1.73;;;12.00;99.90;;;;;;5053483;28;20044;-83
2022/05/04 08:35:32;;;;;;;4.97;1.73;;;12.20;99.90;;;;;;5033935;28;20133;-83
2022/05/04 08:37:59;;;;;;;9.05;1.95;;;12.30;99.90;;;;;;5040206;28;20063;-83
2022/05/04 08:40:24;;;;;;;5.63;1.63;;;12.50;99.90;;;;;;5049516;28;20504;-83
2022/05/04 08:42:52;;;;;;;8.13;1.85;;;12.60;99.90;;;;;;5029822;28;20114;-84
2022/05/04 08:45:18;;;;;;;4.20;1.60;;;12.70;99.90;;;;;;5051867;28;21741;-84
2022/05/04 08:47:46;;;;;;;4.75;1.67;;;12.60;99.90;;;;;;5050112;28;20120;-84
2022/05/04 08:50:17;;;;;;;10.57;1.60;;;12.70;99.90;;;;;;5050893;28;20041;-81
2022/05/04 08:52:53;;;;;;;6.20;2.00;;;12.70;99.90;;;;;;5018222;28;20029;-83
2022/05/04 08:55:20;;;;;;;5.47;2.03;;;12.80;99.90;;;;;;5042592;28;20049;-84
2022/05/04 08:57:46;;;;;;;7.00;1.92;;;12.80;99.90;;;;;;5049641;28;20051;-83
2022/05/04 09:00:13;;;;;;;8.93;1.75;;;12.90;99.90;;;;;;5049184;28;20036;-83
2022/05/04 09:02:39;;;;;;;6.05;1.75;;;12.80;99.90;;;;;;5036038;28;20040;-83
2022/05/04 09:05:23;;;;;;;6.28;2.17;;;12.70;99.90;;;;;;5050496;28;20036;-83
2022/05/04 09:07:52;;;;;;;4.97;1.70;;;12.90;99.90;;;;;;5053295;28;20053;-83
2022/05/04 09:10:27;;;;;;;5.43;1.52;;;12.90;99.90;;;;;;5045089;28;20045;-82
2022/05/04 09:12:55;;;;;;;5.32;1.73;;;12.90;99.90;;;;;;5045753;28;20045;-83
2022/05/04 09:15:22;;;;;;;8.38;1.85;;;13.00;99.90;;;;;;5048724;28;20040;-83
2022/05/04 09:18:05;;;;;;;6.53;1.58;;;13.20;99.90;;;;;;5050823;28;20101;-83
2022/05/04 09:20:47;;;;;;;5.72;1.63;;;13.40;99.90;;;;;;5055126;28;20082;-81
2022/05/04 09:23:14;;;;;;;5.55;1.63;;;13.70;99.90;;;;;;5025005;28;20037;-83
2022/05/04 09:25:39;;;;;;;;;;;14.20;99.90;;;;;;5056341;28;20040;-84
2022/05/04 09:28:13;;;;;;;10.07;2.28;;;14.20;99.80;;;;;;5053729;28;19923;-83
2022/05/04 09:30:45;;;;;;;6.95;1.65;;;14.10;99.00;;;;;;5055737;28;20517;-83
2022/05/04 09:33:12;;;;;;;8.27;1.58;;;13.90;98.70;;;;;;5037721;28;20036;-83
2022/05/04 09:35:40;;;;;;;6.88;1.60;;;14.10;99.90;;;;;;5061736;28;20490;-83
2022/05/04 09:46:43;;;;;;;5.53;1.58;;;14.40;98.30;;;;;;5057961;28;20037;-83
2022/05/04 09:49:16;;;;;;;4.93;1.30;;;14.40;98.40;;;;;;5042178;28;20044;-82
2022/05/04 09:51:53;;;;;;;5.18;1.50;;;14.30;98.10;;;;;;5054989;28;20086;-83
2022/05/04 09:54:23;;;;;;;;;;;14.10;97.70;;;;;;5056020;28;20048;-82
2022/05/04 09:56:51;;;;;;;5.15;1.63;;;14.00;97.90;;;;;;5053315;28;20013;-82
2022/05/04 09:59:29;;;;;;;4.43;1.80;;;14.30;97.90;;;;;;5053523;28;20064;-82
2022/05/04 10:01:56;;;;;;;5.65;1.85;;;14.20;98.20;;;;;;5028821;28;20492;-82
2022/05/04 10:04:25;;;;;;;6.97;1.90;;;14.70;98.40;;;;;;5045787;28;20040;-82
2022/05/04 10:06:52;;;;;;;3.90;1.58;;;15.00;97.80;;;;;;5036023;28;20128;-82
2022/05/04 10:09:18;;;;;;;6.25;1.50;;;15.10;97.10;;;;;;5053602;28;20040;-83
2022/05/04 10:11:44;;;;;;;;;;;15.30;97.80;;;;;;5055457;28;20044;-81
2022/05/04 10:14:12;;;;;;;5.03;1.77;;;15.70;97.10;;;;;;5054965;28;19921;-82
2022/05/04 10:16:51;;;;;;;4.43;1.67;;;15.00;96.70;;;;;;5053575;28;20037;-83
2022/05/04 10:19:36;;;;;;;6.10;2.47;;;15.20;98.50;;;;;;5049906;28;20037;-83
2022/05/04 10:22:08;;;;;;;5.50;1.63;;;15.10;97.00;;;;;;5052652;28;20116;-83
2022/05/04 10:24:35;;;;;;;6.40;1.50;;;15.20;97.30;;;;;;5052747;28;20044;-83
2022/05/04 10:27:22;;;;;;;5.57;1.70;;;15.60;97.60;;;;;;5053357;28;20036;-83
2022/05/04 10:32:41;;;;;;;6.38;1.70;;;15.50;96.20;;;;;;5052625;28;20041;-83
2022/05/04 10:35:38;;;;;;;6.30;1.77;;;15.60;96.20;;;;;;5054875;28;20044;-86
2022/05/04 10:38:13;;;;;;;4.95;1.45;;;15.60;96.40;;;;;;5042276;28;20033;-83
2022/05/04 10:40:39;;;;;;;5.15;1.52;;;15.60;96.00;;;;;;5045150;28;20046;-84
2022/05/04 10:43:10;;;;;;;5.88;1.80;;;15.30;96.10;;;;;;5048577;28;20469;-83
2022/05/04 10:45:41;;;;;;;7.00;1.50;;;15.00;95.70;;;;;;5054018;28;20480;-83
2022/05/04 10:48:18;;;;;;;5.50;1.77;;;15.20;95.80;;;;;;5053437;28;20119;-84
2022/05/04 10:51:03;;;;;;;6.82;1.95;;;15.30;96.10;;;;;;5054909;28;20111;-86
2022/05/04 10:53:29;;;;;;;6.35;1.98;;;16.00;96.30;;;;;;5047155;28;20064;-84
2022/05/04 10:56:07;;;;;;;4.93;1.60;;;16.80;96.30;;;;;;5044711;28;20077;-85
2022/05/04 10:58:50;;;;;;;3.58;1.20;;;17.20;95.50;;;;;;5046947;28;20484;-85
2022/05/04 11:01:29;;;;;;;3.97;1.23;;;17.50;94.80;;;;;;5051899;28;20158;-85
2022/05/04 11:04:22;;;;;;;5.60;2.30;;;17.70;93.40;;;;;;5051901;28;20480;-84
2022/05/04 11:07:00;;;;;;;8.98;2.15;;;17.80;94.40;;;;;;5048881;28;20040;-84
2022/05/04 11:09:31;;;;;;;6.40;1.55;;;18.40;92.60;;;;;;5036615;28;20063;-84
2022/05/04 11:12:00;;;;;;;5.25;1.70;;;18.60;93.60;;;;;;5026332;28;20072;-81
2022/05/04 11:14:26;;;;;;;6.13;1.75;;;18.40;92.60;;;;;;5041494;28;20090;-84
2022/05/04 11:16:55;;;;;;;12.98;1.88;;;18.50;92.20;;;;;;5020333;28;20123;-84
2022/05/04 11:19:26;;;;;;;5.22;1.65;;;18.90;92.70;;;;;;5044971;28;20041;-84
2022/05/04 11:21:53;;;;;;;6.68;1.85;;;18.70;91.30;;;;;;5027213;28;20052;-84
2022/05/04 11:24:18;;;;;;;6.20;1.70;;;19.10;92.90;;;;;;5044610;28;20430;-83
2022/05/04 11:26:47;;;;;;;6.30;2.35;;;19.50;91.60;;;;;;5030155;28;20114;-84
2022/05/04 11:29:23;;;;;;;6.13;1.60;;;19.90;91.10;;;;;;5046054;28;20052;-83
2022/05/04 11:31:56;;;;;;;10.32;1.85;;;20.00;91.40;;;;;;5051084;28;20087;-84
2022/05/04 11:34:27;;;;;;;7.13;1.70;;;20.20;89.80;;;;;;5048618;28;20036;-83
2022/05/04 11:36:56;;;;;;;5.50;1.90;;;19.90;89.90;;;;;;5040018;28;20044;-87
2022/05/04 11:39:24;;;;;;;7.30;1.67;;;20.00;90.00;;;;;;5047128;28;20060;-87
2022/05/04 11:41:53;;;;;;;5.10;1.85;;;20.00;90.40;;;;;;5050604;28;20048;-80
2022/05/04 11:44:21;;;;;;;7.55;1.70;;;20.10;90.30;;;;;;5052135;28;20045;-81
2022/05/04 11:46:49;;;;;;;5.80;1.80;;;20.10;88.60;;;;;;5051315;28;20036;-81
2022/05/04 11:49:15;;;;;;;5.60;1.80;;;19.80;88.40;;;;;;5051754;28;20133;-80
2022/05/04 11:51:42;;;;;;;5.97;1.80;;;20.00;89.00;;;;;;5050419;28;20086;-81
2022/05/04 11:54:08;;;;;;;7.60;1.88;;;20.30;88.80;;;;;;5049572;28;20557;-81
2022/05/04 11:56:35;;;;;;;8.13;1.70;;;20.10;86.30;;;;;;5033660;28;20119;-83
2022/05/04 11:59:02;;;;;;;3.17;1.50;;;19.70;88.40;;;;;;5050077;28;20047;-83
2022/05/04 12:01:28;;;;;;;5.03;1.70;;;19.90;86.40;;;;;;5051640;28;20040;-84
2022/05/04 12:03:54;;;;;;;5.93;1.80;;;19.70;86.50;;;;;;5033273;28;20037;-84
2022/05/04 12:06:21;;;;;;;7.47;1.65;;;19.30;87.50;;;;;;5052562;28;20072;-82
2022/05/04 12:08:47;;;;;;;5.20;1.85;;;20.00;88.40;;;;;;5043761;28;20446;-83
2022/05/04 12:11:14;;;;;;;;;;;20.00;86.70;;;;;;5027212;28;20468;-83
2022/05/04 12:13:42;;;;;;;5.88;1.70;;;20.10;86.90;;;;;;5046043;28;19940;-84
2022/05/04 12:16:10;;;;;;;4.15;1.70;;;20.60;87.40;;;;;;5043199;28;20079;-84
2022/05/04 12:18:38;;;;;;;4.75;1.52;;;20.70;85.20;;;;;;5045438;28;20028;-83
2022/05/04 12:21:15;;;;;;;5.53;1.90;;;20.80;86.30;;;;;;5044804;28;20041;-82
2022/05/04 12:23:43;;;;;;;5.20;1.90;;;21.00;85.40;;;;;;5024151;28;20032;-82
2022/05/04 12:26:10;;;;;;;7.00;1.80;;;21.00;83.90;;;;;;5025638;28;20033;-81
2022/05/04 12:28:37;;;;;;;4.07;1.40;;;20.90;84.60;;;;;;5043251;28;20044;-84
2022/05/04 12:33:49;;;;;;;5.28;2.03;;;21.20;85.30;;;;;;5044991;28;20045;-82
2022/05/04 12:36:20;;;;;;;5.03;1.80;;;21.10;82.00;;;;;;5026120;28;20128;-81
2022/05/04 12:38:50;;;;;;;4.47;1.75;;;21.40;81.60;;;;;;5041615;28;20044;-81
2022/05/04 12:41:21;;;;;;;6.07;1.65;;;21.20;80.00;;;;;;5030227;28;20115;-82
2022/05/04 12:43:49;;;;;;;5.28;1.30;;;21.10;81.50;;;;;;5041932;28;20474;-81
2022/05/04 12:46:17;;;;;;;5.40;1.67;;;21.10;80.50;;;;;;5040049;28;20048;-81
2022/05/04 12:48:44;;;;;;;4.80;1.50;;;21.00;80.00;;;;;;5050479;28;20072;-81
2022/05/04 12:51:14;;;;;;;5.13;1.90;;;20.60;81.10;;;;;;5050426;28;20107;-82
2022/05/04 12:53:40;;;;;;;5.75;1.40;;;20.90;81.50;;;;;;5049839;28;20055;-80
2022/05/04 12:58:54;;;;;;;7.85;1.75;;;21.30;83.70;;;;;;5065298;28;20433;-81
2022/05/04 13:01:25;;;;;;;6.93;2.17;;;21.50;81.40;;;;;;5050249;28;20569;-81
2022/05/04 13:03:51;;;;;;;4.65;1.63;;;21.10;81.40;;;;;;5050061;28;20514;-80
2022/05/04 13:06:17;;;;;;;;;;;21.00;80.90;;;;;;5050733;28;20037;-81
2022/05/04 13:08:42;;;;;;;3.97;1.45;;;20.90;81.20;;;;;;5052224;28;19920;-81
2022/05/04 13:11:08;;;;;;;;;;;20.50;79.60;;;;;;5025880;28;20035;-82
2022/05/04 13:13:34;;;;;;;5.05;1.70;;;20.00;81.20;;;;;;5045304;28;20007;-82
2022/05/04 13:15:59;;;;;;;4.65;1.85;;;20.40;82.60;;;;;;5034515;28;20041;-82
2022/05/04 13:18:25;;;;;;;4.50;1.70;;;20.70;83.30;;;;;;5049913;28;20038;-81
2022/05/04 13:20:51;;;;;;;;;;;20.80;80.70;;;;;;5043059;28;20041;-81
2022/05/04 13:23:17;;;;;;;5.20;2.10;;;19.90;80.20;;;;;;5041899;28;19916;-81
2022/05/04 13:25:43;;;;;;;;;;;20.10;80.70;;;;;;5048055;28;20036;-77
2022/05/04 13:28:08;;;;;;;4.45;1.88;;;19.20;80.70;;;;;;5068539;28;20415;-77
2022/05/04 13:30:34;;;;;;;6.80;2.10;;;19.00;81.60;;;;;;5051452;28;20071;-78
2022/05/04 13:33:01;;;;;;;7.78;2.30;;;19.20;82.10;;;;;;5048793;28;20049;-81
2022/05/04 13:35:28;;;;;;;5.25;1.63;;;19.60;83.20;;;;;;5052176;28;20431;-83
2022/05/04 13:37:54;;;;;;;4.68;1.83;;;20.40;83.90;;;;;;5033266;28;20040;-81
2022/05/04 13:40:19;;;;;;;;;;;20.60;84.10;;;;;;5049958;28;20051;-82